Time;durP1;ratioP1;P1;durP2;ratioP2;P2;SDS_P1;SDS_P2;PMS_P1;PMS_P2;Temp;Humidity;BMP_temperature;BMP_pressure;BME280_temperature;BME280_humidity;BME280_pressure;Samples;Min_cycle;Max_cycle;Signal;HPM_P1;HPM_P2
2023/06/07 00:00:38;;;;;;;;;;;8.80;99.90;;;;;;8361222;28;19931;-77
2023/06/07 00:04:39;;;;;;;;;;;8.90;99.90;;;;;;8338348;28;19913;-78
2023/06/07 00:08:40;;;;;;;;;;;8.80;99.90;;;;;;8361628;28;19920;-78
2023/06/07 00:12:41;;;;;;;;;;;8.60;99.90;;;;;;8371632;28;19919;-78
2023/06/07 00:16:44;;;;;;;;;;;8.50;99.90;;;;;;8356281;28;19909;-78
2023/06/07 00:20:46;;;;;;;;;;;8.60;99.90;;;;;;8352004;28;19923;-77
2023/06/07 00:24:46;;;;;;;;;;;8.50;99.90;;;;;;8348722;28;19924;-77
2023/06/07 00:28:46;;;;;;;;;;;8.50;99.90;;;;;;8350042;28;19952;-78
2023/06/07 00:32:47;;;;;;;;;;;8.40;99.90;;;;;;8353841;28;20296;-78
2023/06/07 00:36:48;;;;;;;;;;;8.20;99.90;;;;;;8357610;28;19916;-78
2023/06/07 00:40:48;;;;;;;;;;;8.10;99.90;;;;;;8342098;28;19909;-78
2023/06/07 00:44:48;;;;;;;;;;;8.00;99.90;;;;;;8340226;28;19935;-77
2023/06/07 00:48:50;;;;;;;;;;;8.10;99.90;;;;;;8353784;28;20396;-78
2023/06/07 00:52:51;;;;;;;;;;;8.30;99.90;;;;;;8386153;28;19912;-78
2023/06/07 00:56:51;;;;;;;;;;;8.20;99.90;;;;;;8371254;28;19908;-77
2023/06/07 01:00:52;;;;;;;;;;;8.20;99.90;;;;;;8357755;28;19920;-76
2023/06/07 01:04:55;;;;;;;;;;;8.20;99.90;;;;;;8372677;28;19917;-78
2023/06/07 01:08:55;;;;;;;;;;;8.10;99.90;;;;;;8371932;28;19920;-77
2023/06/07 01:12:56;;;;;;;;;;;8.00;99.90;;;;;;8365806;28;19948;-77
2023/06/07 01:16:58;;;;;;;;;;;7.90;99.90;;;;;;8367350;28;19915;-78
2023/06/07 01:20:59;;;;;;;;;;;7.70;99.90;;;;;;8370081;28;19913;-78
2023/06/07 01:25:00;;;;;;;;;;;7.70;99.90;;;;;;8349200;28;19913;-79
2023/06/07 01:29:06;;;;;;;;;;;7.70;99.90;;;;;;8373977;28;19989;-77
2023/06/07 01:33:07;;;;;;;;;;;7.50;99.90;;;;;;8366597;28;20340;-79
2023/06/07 01:37:07;;;;;;;;;;;7.40;99.90;;;;;;8373629;28;19916;-77
2023/06/07 01:41:08;;;;;;;;;;;7.60;99.90;;;;;;8349211;28;20054;-78
2023/06/07 01:45:10;;;;;;;;;;;7.60;99.90;;;;;;8376508;28;19923;-77
2023/06/07 01:49:11;;;;;;;;;;;7.30;99.90;;;;;;8386220;28;19917;-78
2023/06/07 01:53:12;;;;;;;;;;;7.10;99.90;;;;;;8367023;28;19958;-78
2023/06/07 01:57:17;;;;;;;;;;;7.10;99.90;;;;;;8357848;28;19969;-77
2023/06/07 02:01:33;;;;;;;;;;;7.20;99.90;;;;;;8357587;28;19915;-77
2023/06/07 02:05:42;;;;;;;;;;;7.30;99.90;;;;;;8392626;28;20261;-77
2023/06/07 02:09:44;;;;;;;;;;;7.20;99.90;;;;;;8356707;28;19916;-77
2023/06/07 02:13:45;;;;;;;;;;;7.20;99.90;;;;;;8390150;28;19917;-77
2023/06/07 02:17:48;;;;;;;;;;;7.10;99.90;;;;;;8379490;28;20008;-78
2023/06/07 02:21:49;;;;;;;;;;;6.80;99.90;;;;;;8354345;28;19917;-78
2023/06/07 02:25:49;;;;;;;;;;;6.90;99.90;;;;;;8353466;28;20381;-77
2023/06/07 02:29:50;;;;;;;;;;;7.00;99.90;;;;;;8377300;28;19913;-77
2023/06/07 02:33:51;;;;;;;;;;;6.80;99.90;;;;;;8370948;28;19908;-79
2023/06/07 02:37:51;;;;;;;;;;;6.90;99.90;;;;;;8351874;28;19913;-77
2023/06/07 02:41:52;;;;;;;;;;;6.40;99.90;;;;;;8364486;28;19912;-76
2023/06/07 02:45:52;;;;;;;;;;;6.80;99.90;;;;;;8344541;28;19970;-77
2023/06/07 02:49:53;;;;;;;;;;;6.70;99.90;;;;;;8371873;28;19915;-77
2023/06/07 02:53:54;;;;;;;;;;;6.70;99.90;;;;;;8383821;28;19938;-77
2023/06/07 02:57:54;;;;;;;;;;;6.50;99.90;;;;;;8374849;28;19912;-77
2023/06/07 03:01:55;;;;;;;;;;;6.50;99.90;;;;;;8350892;28;19909;-78
2023/06/07 03:05:59;;;;;;;;;;;6.50;99.90;;;;;;8350293;28;19916;-78
2023/06/07 03:10:00;;;;;;;;;;;6.50;99.90;;;;;;8373518;28;19966;-78
2023/06/07 03:14:00;;;;;;;;;;;6.30;99.90;;;;;;8349734;28;19940;-77
2023/06/07 03:18:03;;;;;;;;;;;6.30;99.90;;;;;;8361388;28;20460;-78
2023/06/07 03:22:06;;;;;;;;;;;6.30;99.90;;;;;;8368407;28;20322;-77
2023/06/07 03:26:07;;;;;;;;;;;6.50;99.90;;;;;;8358994;28;19969;-77
2023/06/07 03:30:08;;;;;;;;;;;6.70;99.90;;;;;;8377759;28;19951;-77
2023/06/07 03:34:08;;;;;;;;;;;6.60;99.90;;;;;;8378646;28;19909;-77
2023/06/07 03:38:09;;;;;;;;;;;6.50;99.90;;;;;;8357667;28;19916;-77
2023/06/07 03:42:09;;;;;;;;;;;6.40;99.90;;;;;;8353523;28;19909;-78
2023/06/07 03:46:09;;;;;;;;;;;6.30;99.90;;;;;;8345818;28;20406;-77
2023/06/07 03:50:10;;;;;;;;;;;6.30;99.90;;;;;;8368449;28;19913;-77
2023/06/07 03:54:10;;;;;;;;;;;6.50;99.90;;;;;;8374666;28;19940;-77
2023/06/07 03:58:12;;;;;;;;;;;6.70;99.90;;;;;;8369157;28;19951;-77
2023/06/07 04:02:12;;;;;;;;;;;7.00;99.90;;;;;;8351998;28;20387;-77
2023/06/07 04:06:14;;;;;;;;;;;7.40;99.90;;;;;;8346863;28;20233;-78
2023/06/07 04:10:14;;;;;;;;;;;7.80;99.90;;;;;;8365519;28;19932;-78
2023/06/07 04:14:15;;;;;;;;;;;8.20;99.90;;;;;;8351234;28;20011;-78
2023/06/07 04:18:15;;;;;;;;;;;8.70;99.90;;;;;;8346720;28;19919;-78
2023/06/07 04:22:16;;;;;;;;;;;9.30;99.90;;;;;;8350970;28;19924;-86
2023/06/07 04:26:19;;;;;;;;;;;9.70;99.90;;;;;;8347744;28;20404;-83
2023/06/07 04:30:19;;;;;;;;;;;10.40;99.90;;;;;;8352195;28;19916;-83
2023/06/07 04:34:21;;;;;;;;;;;11.20;99.90;;;;;;8362709;28;19982;-83
2023/06/07 04:38:23;;;;;;;;;;;12.10;99.90;;;;;;8371451;28;20369;-83
2023/06/07 04:42:25;;;;;;;;;;;12.70;99.90;;;;;;8351700;28;19933;-84
2023/06/07 04:46:26;;;;;;;;;;;13.30;99.90;;;;;;8371014;28;20282;-84
2023/06/07 04:50:28;;;;;;;;;;;13.50;99.90;;;;;;8377187;28;20320;-85
2023/06/07 04:54:29;;;;;;;;;;;14.00;99.90;;;;;;8360258;28;19966;-83
2023/06/07 04:58:31;;;;;;;;;;;14.40;99.90;;;;;;8394100;28;19913;-82
2023/06/07 05:02:38;;;;;;;;;;;15.50;99.90;;;;;;8370071;28;19913;-85
2023/06/07 05:06:39;;;;;;;;;;;15.30;99.90;;;;;;8354395;28;19931;-84
2023/06/07 05:10:40;;;;;;;;;;;16.60;99.90;;;;;;8349656;28;19953;-84
2023/06/07 05:14:40;;;;;;;;;;;16.00;99.90;;;;;;8357743;28;19959;-85
2023/06/07 05:18:42;;;;;;;;;;;16.40;99.90;;;;;;8367192;28;19913;-83
2023/06/07 05:22:43;;;;;;;;;;;16.40;99.90;;;;;;8357860;28;19917;-83
2023/06/07 05:26:44;;;;;;;;;;;17.40;99.90;;;;;;8351399;28;20422;-82
2023/06/07 05:30:44;;;;;;;;;;;17.90;99.90;;;;;;8349113;28;19943;-82
2023/06/07 05:34:45;;;;;;;;;;;18.20;99.90;;;;;;8367142;28;19965;-82
2023/06/07 05:38:45;;;;;;;;;;;18.70;99.90;;;;;;8340084;28;20004;-82
2023/06/07 05:42:49;;;;;;;;;;;19.00;99.90;;;;;;8363987;28;19920;-83
2023/06/07 05:46:49;;;;;;;;;;;19.50;99.90;;;;;;8342651;28;19927;-83
2023/06/07 05:50:52;;;;;;;;;;;19.90;99.90;;;;;;8359017;28;19923;-82
2023/06/07 05:54:54;;;;;;;;;;;20.20;99.90;;;;;;8358562;28;19919;-81
2023/06/07 05:58:54;;;;;;;;;;;20.70;99.90;;;;;;8384439;28;19919;-83
2023/06/07 06:02:56;;;;;;;;;;;20.80;99.90;;;;;;8350354;28;19923;-84
2023/06/07 06:06:56;;;;;;;;;;;21.20;99.90;;;;;;8364265;28;19916;-83
2023/06/07 06:10:57;;;;;;;;;;;21.60;99.90;;;;;;8360108;28;19948;-83
2023/06/07 06:14:58;;;;;;;;;;;21.00;99.90;;;;;;8369148;28;20397;-84
2023/06/07 06:18:58;;;;;;;;;;;21.50;99.90;;;;;;8359171;28;19913;-84
2023/06/07 06:22:59;;;;;;;;;;;22.00;99.90;;;;;;8351299;28;19916;-84
2023/06/07 06:26:59;;;;;;;;;;;22.40;99.90;;;;;;8347711;28;19993;-83
2023/06/07 06:31:01;;;;;;;;;;;22.90;99.90;;;;;;8348734;28;19982;-83
2023/06/07 06:35:03;;;;;;;;;;;23.40;99.90;;;;;;8348791;28;20054;-84
2023/06/07 06:39:04;;;;;;;;;;;23.40;99.90;;;;;;8346779;28;20004;-84
2023/06/07 06:43:04;;;;;;;;;;;23.50;99.90;;;;;;8361312;28;19921;-84
2023/06/07 06:47:05;;;;;;;;;;;23.70;99.90;;;;;;8357717;28;19970;-84
2023/06/07 06:51:05;;;;;;;;;;;23.70;99.90;;;;;;8356621;28;19908;-84
2023/06/07 06:55:06;;;;;;;;;;;23.90;99.90;;;;;;8367604;28;20016;-84
2023/06/07 06:59:06;;;;;;;;;;;24.40;99.90;;;;;;8371966;28;19909;-85
2023/06/07 07:03:07;;;;;;;;;;;25.10;99.90;;;;;;8360134;28;19909;-83
2023/06/07 07:07:07;;;;;;;;;;;25.20;99.90;;;;;;8360949;28;20496;-83
2023/06/07 07:11:08;;;;;;;;;;;25.40;99.90;;;;;;8364836;28;19959;-85
2023/06/07 07:15:08;;;;;;;;;;;25.30;99.90;;;;;;8374312;28;19909;-84
2023/06/07 07:19:09;;;;;;;;;;;25.10;99.90;;;;;;8362691;28;20365;-85
2023/06/07 07:23:09;;;;;;;;;;;25.10;99.90;;;;;;8365900;28;20432;-84
2023/06/07 07:27:10;;;;;;;;;;;25.30;99.90;;;;;;8372288;28;20467;-85
2023/06/07 07:31:10;;;;;;;;;;;25.50;99.90;;;;;;8348664;28;19936;-85
2023/06/07 07:35:11;;;;;;;;;;;26.10;99.90;;;;;;8349102;28;19917;-84
2023/06/07 07:39:12;;;;;;;;;;;25.80;99.90;;;;;;8347137;28;19988;-85
2023/06/07 07:43:12;;;;;;;;;;;26.10;99.90;;;;;;8347784;28;19913;-84
2023/06/07 07:47:13;;;;;;;;;;;25.60;99.90;;;;;;8358025;28;20336;-84
2023/06/07 07:51:13;;;;;;;;;;;25.50;99.90;;;;;;8351939;28;19913;-78
2023/06/07 07:55:15;;;;;;;;;;;25.50;99.90;;;;;;8377732;28;20127;-78
2023/06/07 07:59:16;;;;;;;;;;;26.10;99.90;;;;;;8376260;28;19921;-79
2023/06/07 08:03:16;;;;;;;;;;;26.30;99.60;;;;;;8340903;28;19920;-79
2023/06/07 08:07:17;;;;;;;;;;;26.00;99.10;;;;;;8339127;28;19990;-81
2023/06/07 08:11:17;;;;;;;;;;;26.30;99.00;;;;;;8358929;28;20401;-80
2023/06/07 08:15:18;;;;;;;;;;;26.50;97.00;;;;;;8368656;28;19913;-78
2023/06/07 08:19:18;;;;;;;;;;;25.80;95.50;;;;;;8362754;28;19917;-80
2023/06/07 08:23:19;;;;;;;;;;;25.60;96.40;;;;;;8348003;28;20385;-79
2023/06/07 08:27:19;;;;;;;;;;;25.40;94.10;;;;;;8356304;28;19916;-79
2023/06/07 08:31:22;;;;;;;;;;;24.80;95.30;;;;;;8338714;28;19912;-79
2023/06/07 08:35:22;;;;;;;;;;;25.20;98.60;;;;;;8362342;28;19920;-79
2023/06/07 08:39:23;;;;;;;;;;;24.90;94.90;;;;;;8357151;28;19912;-79
2023/06/07 08:43:23;;;;;;;;;;;25.30;97.00;;;;;;8379532;28;19913;-80
2023/06/07 08:47:25;;;;;;;;;;;25.90;91.40;;;;;;8359606;28;20007;-79
2023/06/07 08:51:27;;;;;;;;;;;25.60;92.10;;;;;;8367397;28;20296;-80
2023/06/07 08:55:27;;;;;;;;;;;25.30;91.70;;;;;;8381937;28;19912;-79
2023/06/07 08:59:28;;;;;;;;;;;25.70;93.00;;;;;;8353052;28;20550;-80
2023/06/07 09:03:28;;;;;;;;;;;26.30;93.20;;;;;;8346431;28;19923;-79
2023/06/07 09:07:30;;;;;;;;;;;26.10;92.20;;;;;;8376266;28;19935;-79
2023/06/07 09:11:30;;;;;;;;;;;25.60;92.00;;;;;;8377901;28;19908;-80
2023/06/07 09:15:32;;;;;;;;;;;25.70;91.60;;;;;;8363003;28;20380;-78
2023/06/07 09:19:34;;;;;;;;;;;25.70;94.40;;;;;;8373518;28;20523;-79
2023/06/07 09:23:38;;;;;;;;;;;25.80;91.90;;;;;;8352013;28;20008;-80
2023/06/07 09:27:39;;;;;;;;;;;25.30;93.20;;;;;;8359197;28;19937;-80
2023/06/07 09:31:39;;;;;;;;;;;25.00;92.10;;;;;;8358908;28;19913;-79
2023/06/07 09:35:40;;;;;;;;;;;24.90;93.60;;;;;;8358957;28;19912;-80
2023/06/07 09:39:40;;;;;;;;;;;24.70;90.50;;;;;;8341428;28;20396;-81
2023/06/07 09:43:50;;;;;;;;;;;24.90;90.20;;;;;;8332210;28;19928;-79
2023/06/07 09:48:04;;;;;;;;;;;25.00;91.30;;;;;;8338165;28;20377;-79
2023/06/07 09:52:11;;;;;;;;;;;25.30;92.10;;;;;;8360874;28;19966;-80
2023/06/07 09:56:15;;;;;;;;;;;25.50;87.90;;;;;;8364698;28;20710;-79
2023/06/07 10:00:17;;;;;;;;;;;25.60;91.40;;;;;;8352495;28;19921;-80
2023/06/07 10:04:17;;;;;;;;;;;26.10;88.10;;;;;;8343808;28;19944;-79
2023/06/07 10:08:18;;;;;;;;;;;27.00;83.70;;;;;;8371182;28;19920;-80
2023/06/07 10:12:22;;;;;;;;;;;27.60;88.60;;;;;;8352893;28;19913;-81
2023/06/07 10:16:24;;;;;;;;;;;27.90;90.40;;;;;;8341558;28;19919;-81
2023/06/07 10:20:28;;;;;;;;;;;28.30;87.50;;;;;;8348519;28;19912;-80
2023/06/07 10:24:32;;;;;;;;;;;27.80;79.30;;;;;;8339494;28;20397;-81
2023/06/07 10:28:53;;;;;;;;;;;27.80;83.00;;;;;;8353896;28;20289;-80
2023/06/07 10:32:54;;;;;;;;;;;27.20;81.50;;;;;;8338657;28;20300;-80
2023/06/07 10:36:56;;;;;;;;;;;26.40;83.30;;;;;;8339985;28;20201;-79
2023/06/07 10:40:57;;;;;;;;;;;26.60;81.70;;;;;;8360929;28;19917;-79
2023/06/07 10:44:58;;;;;;;;;;;26.80;73.00;;;;;;8355801;28;19917;-79
2023/06/07 10:48:59;;;;;;;;;;;26.80;85.50;;;;;;8354069;28;19975;-79
2023/06/07 10:53:00;;;;;;;;;;;26.80;77.80;;;;;;8333711;28;20002;-80
2023/06/07 10:57:02;;;;;;;;;;;27.30;72.60;;;;;;8358204;28;19921;-81
2023/06/07 11:01:22;;;;;;;;;;;29.00;73.70;;;;;;8339156;28;19929;-80
2023/06/07 11:05:43;;;;;;;;;;;30.00;65.60;;;;;;8338800;28;19916;-79
2023/06/07 11:09:43;;;;;;;;;;;30.60;65.10;;;;;;8339048;28;19913;-80
2023/06/07 11:13:44;;;;;;;;;;;31.20;69.60;;;;;;8341964;28;19913;-80
2023/06/07 11:17:53;;;;;;;;;;;31.70;66.20;;;;;;8341238;28;20380;-80
2023/06/07 11:21:55;;;;;;;;;;;31.60;62.50;;;;;;8344485;28;19924;-79
2023/06/07 11:26:05;;;;;;;;;;;31.00;62.50;;;;;;8338644;28;19974;-79
2023/06/07 11:30:06;;;;;;;;;;;29.90;63.10;;;;;;8338310;28;19972;-81
2023/06/07 11:34:06;;;;;;;;;;;29.20;67.10;;;;;;8367771;28;19912;-79
2023/06/07 11:38:07;;;;;;;;;;;29.50;63.80;;;;;;8337297;28;20285;-80
2023/06/07 11:42:07;;;;;;;;;;;28.10;68.20;;;;;;8336741;28;20656;-80
2023/06/07 11:46:12;;;;;;;;;;;27.80;65.00;;;;;;8352060;28;19923;-79
2023/06/07 11:50:13;;;;;;;;;;;28.00;63.60;;;;;;8334565;28;19916;-79
2023/06/07 11:54:14;;;;;;;;;;;27.20;66.40;;;;;;8340202;28;19927;-78
2023/06/07 11:58:14;;;;;;;;;;;28.70;59.20;;;;;;8339328;28;19958;-81
2023/06/07 12:02:15;;;;;;;;;;;29.20;63.10;;;;;;8342627;28;20296;-81
2023/06/07 12:06:16;;;;;;;;;;;28.60;61.50;;;;;;8345844;28;19925;-81
2023/06/07 12:10:23;;;;;;;;;;;27.40;59.40;;;;;;8341519;28;19913;-80
2023/06/07 12:14:32;;;;;;;;;;;27.50;62.40;;;;;;8353014;28;19913;-79
2023/06/07 12:18:35;;;;;;;;;;;30.10;61.00;;;;;;8356069;28;20000;-81
2023/06/07 12:22:35;;;;;;;;;;;32.10;54.80;;;;;;8346016;28;19924;-82
2023/06/07 12:26:36;;;;;;;;;;;32.60;55.40;;;;;;8343574;28;20051;-82
2023/06/07 12:30:37;;;;;;;;;;;32.60;56.00;;;;;;8341609;28;20022;-79
2023/06/07 12:34:43;;;;;;;;;;;31.70;54.80;;;;;;8356369;28;19928;-81
2023/06/07 12:38:43;;;;;;;;;;;31.50;53.00;;;;;;8360579;28;19913;-81
2023/06/07 12:42:45;;;;;;;;;;;30.90;54.80;;;;;;8340954;28;19958;-81
2023/06/07 12:46:45;;;;;;;;;;;30.80;54.40;;;;;;8340477;28;20394;-80
2023/06/07 12:50:46;;;;;;;;;;;32.10;52.20;;;;;;8363528;28;19919;-82
2023/06/07 12:54:46;;;;;;;;;;;32.10;52.10;;;;;;8335968;28;19946;-80
2023/06/07 12:58:47;;;;;;;;;;;31.60;58.80;;;;;;8336962;28;19909;-81
2023/06/07 13:02:48;;;;;;;;;;;33.50;52.40;;;;;;8345882;28;19912;-81
2023/06/07 13:06:49;;;;;;;;;;;34.10;50.40;;;;;;8345497;28;19913;-80
2023/06/07 13:10:49;;;;;;;;;;;35.20;46.10;;;;;;8363217;28;19917;-81
2023/06/07 13:14:49;;;;;;;;;;;34.30;46.20;;;;;;8336775;28;20277;-82
2023/06/07 13:18:51;;;;;;;;;;;35.20;44.80;;;;;;8344492;28;20319;-82
2023/06/07 13:22:51;;;;;;;;;;;37.00;40.60;;;;;;8333309;28;19916;-83
2023/06/07 13:26:52;;;;;;;;;;;37.20;41.80;;;;;;8351569;28;19916;-81
2023/06/07 13:30:53;;;;;;;;;;;37.40;41.50;;;;;;8344484;28;19963;-82
2023/06/07 13:34:54;;;;;;;;;;;37.90;39.00;;;;;;8347398;28;19913;-82
2023/06/07 13:38:56;;;;;;;;;;;39.00;36.60;;;;;;8359144;28;19921;-83
2023/06/07 13:42:56;;;;;;;;;;;39.90;37.20;;;;;;8342769;28;19908;-81
2023/06/07 13:46:57;;;;;;;;;;;39.50;34.50;;;;;;8342942;28;19939;-80
2023/06/07 13:50:57;;;;;;;;;;;38.00;37.50;;;;;;8341116;28;19939;-81
2023/06/07 13:54:58;;;;;;;;;;;35.30;38.40;;;;;;8341833;28;20419;-81
2023/06/07 13:58:59;;;;;;;;;;;34.70;41.80;;;;;;8350519;28;19913;-80
2023/06/07 14:03:00;;;;;;;;;;;34.30;41.50;;;;;;8363268;28;19917;-80
2023/06/07 14:07:00;;;;;;;;;;;34.40;41.20;;;;;;8362564;28;20035;-80
2023/06/07 14:11:02;;;;;;;;;;;35.00;38.20;;;;;;8345868;28;19913;-81
2023/06/07 14:15:03;;;;;;;;;;;36.10;40.20;;;;;;8358657;28;19961;-80
2023/06/07 14:19:03;;;;;;;;;;;36.80;37.70;;;;;;8366886;28;20373;-81
2023/06/07 14:23:04;;;;;;;;;;;36.80;38.30;;;;;;8352545;28;19924;-81
2023/06/07 14:27:06;;;;;;;;;;;35.20;37.30;;;;;;8363349;28;20380;-80
2023/06/07 14:31:08;;;;;;;;;;;34.80;39.30;;;;;;8349017;28;19912;-80
2023/06/07 14:35:08;;;;;;;;;;;34.30;40.50;;;;;;8349970;28;20042;-81
2023/06/07 14:39:09;;;;;;;;;;;34.10;40.80;;;;;;8370119;28;19952;-80
2023/06/07 14:43:09;;;;;;;;;;;34.10;38.10;;;;;;8352831;28;19956;-81
2023/06/07 14:47:10;;;;;;;;;;;35.40;37.60;;;;;;8357170;28;19913;-81
2023/06/07 14:51:10;;;;;;;;;;;35.90;39.40;;;;;;8351417;28;19924;-80
2023/06/07 14:55:11;;;;;;;;;;;35.10;39.00;;;;;;8365541;28;19962;-81
2023/06/07 14:59:12;;;;;;;;;;;35.20;36.30;;;;;;8361791;28;19917;-80
2023/06/07 15:03:13;;;;;;;;;;;36.50;36.90;;;;;;8358886;28;19916;-80
2023/06/07 15:07:13;;;;;;;;;;;36.10;37.70;;;;;;8340806;28;19963;-80
2023/06/07 15:11:15;;;;;;;;;;;35.20;39.90;;;;;;8368715;28;19916;-80
2023/06/07 15:15:15;;;;;;;;;;;34.70;43.40;;;;;;8360102;28;19928;-81
2023/06/07 15:19:16;;;;;;;;;;;36.00;38.60;;;;;;8350138;28;19917;-81
2023/06/07 15:23:16;;;;;;;;;;;36.40;37.40;;;;;;8369618;28;19974;-80
2023/06/07 15:27:17;;;;;;;;;;;35.60;39.80;;;;;;8345453;28;19939;-79
2023/06/07 15:31:17;;;;;;;;;;;33.10;42.50;;;;;;8354112;28;19917;-80
2023/06/07 15:35:18;;;;;;;;;;;31.80;44.30;;;;;;8345186;28;19917;-80
2023/06/07 15:39:18;;;;;;;;;;;30.80;47.10;;;;;;8341805;28;19959;-82
2023/06/07 15:43:19;;;;;;;;;;;31.10;44.10;;;;;;8344119;28;19912;-81
2023/06/07 15:47:19;;;;;;;;;;;30.10;46.70;;;;;;8349335;28;20373;-81
2023/06/07 15:51:20;;;;;;;;;;;28.80;48.60;;;;;;8359499;28;19915;-81
2023/06/07 15:55:22;;;;;;;;;;;27.70;51.20;;;;;;8349013;28;19917;-80
2023/06/07 15:59:22;;;;;;;;;;;26.80;53.00;;;;;;8344895;28;20442;-80
2023/06/07 16:03:23;;;;;;;;;;;25.90;56.00;;;;;;8340518;28;19966;-80
2023/06/07 16:07:23;;;;;;;;;;;25.40;56.80;;;;;;8338279;28;19916;-80
2023/06/07 16:11:24;;;;;;;;;;;25.10;57.90;;;;;;8340067;28;19920;-81
2023/06/07 16:15:26;;;;;;;;;;;25.10;57.10;;;;;;8343619;28;19966;-80
2023/06/07 16:19:26;;;;;;;;;;;25.20;59.20;;;;;;8341403;28;19919;-80
2023/06/07 16:23:27;;;;;;;;;;;25.20;57.40;;;;;;8359102;28;20510;-80
2023/06/07 16:27:27;;;;;;;;;;;25.00;57.40;;;;;;8356168;28;19917;-80
2023/06/07 16:31:30;;;;;;;;;;;24.90;57.80;;;;;;8363663;28;20001;-80
2023/06/07 16:35:30;;;;;;;;;;;24.90;59.90;;;;;;8344561;28;19955;-80
2023/06/07 16:39:30;;;;;;;;;;;24.90;57.00;;;;;;8346647;28;19984;-80
2023/06/07 16:43:31;;;;;;;;;;;25.10;57.70;;;;;;8350966;28;19920;-80
2023/06/07 16:47:31;;;;;;;;;;;25.10;57.90;;;;;;8344535;28;20300;-79
2023/06/07 16:51:32;;;;;;;;;;;24.90;60.80;;;;;;8340871;28;19927;-80
2023/06/07 16:55:33;;;;;;;;;;;24.70;59.20;;;;;;8347015;28;19917;-80
2023/06/07 16:59:33;;;;;;;;;;;24.20;60.70;;;;;;8343315;28;19917;-81
2023/06/07 17:03:33;;;;;;;;;;;23.90;62.30;;;;;;8362092;28;19916;-79
2023/06/07 17:07:34;;;;;;;;;;;23.80;64.60;;;;;;8349473;28;19917;-80
2023/06/07 17:11:35;;;;;;;;;;;23.40;63.30;;;;;;8343724;28;19909;-79
2023/06/07 17:15:35;;;;;;;;;;;23.20;64.70;;;;;;8377130;28;19920;-79
2023/06/07 17:19:36;;;;;;;;;;;23.00;66.30;;;;;;8360507;28;20581;-80
2023/06/07 17:23:36;;;;;;;;;;;22.90;66.90;;;;;;8346557;28;19920;-82
2023/06/07 17:27:37;;;;;;;;;;;22.70;67.60;;;;;;8367950;28;20015;-79
2023/06/07 17:31:37;;;;;;;;;;;22.60;66.90;;;;;;8362519;28;20008;-80
2023/06/07 17:35:38;;;;;;;;;;;22.70;68.30;;;;;;8355538;28;19920;-81
2023/06/07 17:39:38;;;;;;;;;;;22.30;71.90;;;;;;8355859;28;19909;-80
2023/06/07 17:43:38;;;;;;;;;;;22.30;71.70;;;;;;8363750;28;19951;-80
2023/06/07 17:47:46;;;;;;;;;;;22.40;69.40;;;;;;8358907;28;19924;-79
2023/06/07 17:51:48;;;;;;;;;;;22.20;71.70;;;;;;8357695;28;19919;-81
2023/06/07 17:55:49;;;;;;;;;;;22.00;70.80;;;;;;8366905;28;19912;-81
2023/06/07 17:59:49;;;;;;;;;;;22.10;74.10;;;;;;8356077;28;19935;-80
2023/06/07 18:03:50;;;;;;;;;;;22.10;72.80;;;;;;8353204;28;19917;-80
2023/06/07 18:07:51;;;;;;;;;;;21.80;74.30;;;;;;8369616;28;19909;-81
2023/06/07 18:11:51;;;;;;;;;;;21.60;77.20;;;;;;8358894;28;19916;-80
2023/06/07 18:15:51;;;;;;;;;;;21.70;76.80;;;;;;8371745;28;19964;-80
2023/06/07 18:19:52;;;;;;;;;;;21.20;77.40;;;;;;8367251;28;19919;-80
2023/06/07 18:23:52;;;;;;;;;;;21.10;79.00;;;;;;8368850;28;19917;-80
2023/06/07 18:27:53;;;;;;;;;;;20.80;80.20;;;;;;8358962;28;19959;-80
2023/06/07 18:31:53;;;;;;;;;;;20.60;81.70;;;;;;8356563;28;19909;-79
2023/06/07 18:35:57;;;;;;;;;;;20.10;84.20;;;;;;8362509;28;19920;-80
2023/06/07 18:40:02;;;;;;;;;;;19.70;87.50;;;;;;8342995;28;19909;-80
2023/06/07 18:44:03;;;;;;;;;;;19.60;90.10;;;;;;8363907;28;19959;-80
2023/06/07 18:48:04;;;;;;;;;;;19.00;91.90;;;;;;8343041;28;20007;-80
2023/06/07 18:52:10;;;;;;;;;;;18.70;92.60;;;;;;8353346;28;20442;-81
2023/06/07 18:56:11;;;;;;;;;;;18.50;93.90;;;;;;8354660;28;20146;-80
2023/06/07 19:00:11;;;;;;;;;;;18.10;94.70;;;;;;8373882;28;19951;-80
2023/06/07 19:04:12;;;;;;;;;;;18.00;96.30;;;;;;8358688;28;20435;-80
2023/06/07 19:08:12;;;;;;;;;;;17.70;97.40;;;;;;8361949;28;19916;-80
2023/06/07 19:12:13;;;;;;;;;;;17.40;99.90;;;;;;8378436;28;19913;-80
2023/06/07 19:16:13;;;;;;;;;;;17.50;99.90;;;;;;8359983;28;20375;-80
2023/06/07 19:20:15;;;;;;;;;;;17.00;99.90;;;;;;8370284;28;19921;-80
2023/06/07 19:24:15;;;;;;;;;;;16.60;99.90;;;;;;8350887;28;19959;-80
2023/06/07 19:28:16;;;;;;;;;;;16.20;99.90;;;;;;8355977;28;20146;-79
2023/06/07 19:32:16;;;;;;;;;;;16.20;99.90;;;;;;8358749;28;19925;-81
2023/06/07 19:36:17;;;;;;;;;;;15.90;99.90;;;;;;8356054;28;19916;-79
2023/06/07 19:40:17;;;;;;;;;;;15.80;99.90;;;;;;8351883;28;19913;-80
2023/06/07 19:44:17;;;;;;;;;;;15.60;99.90;;;;;;8366257;28;19947;-79
2023/06/07 19:48:18;;;;;;;;;;;15.50;99.90;;;;;;8344195;28;19916;-81
2023/06/07 19:52:19;;;;;;;;;;;15.40;99.90;;;;;;8352060;28;20371;-80
2023/06/07 19:56:20;;;;;;;;;;;15.10;99.90;;;;;;8378203;28;20284;-80
2023/06/07 20:00:20;;;;;;;;;;;15.10;99.90;;;;;;8358123;28;19912;-79
2023/06/07 20:04:20;;;;;;;;;;;15.10;99.90;;;;;;8355334;28;19916;-79
2023/06/07 20:08:21;;;;;;;;;;;15.00;99.90;;;;;;8347876;28;19947;-80
2023/06/07 20:12:21;;;;;;;;;;;14.90;99.90;;;;;;8350787;28;19909;-80
2023/06/07 20:16:22;;;;;;;;;;;14.50;99.90;;;;;;8371906;28;19962;-80
2023/06/07 20:20:22;;;;;;;;;;;14.40;99.90;;;;;;8371184;28;19916;-80
2023/06/07 20:24:23;;;;;;;;;;;14.50;99.90;;;;;;8352603;28;19916;-79
2023/06/07 20:28:26;;;;;;;;;;;14.40;99.90;;;;;;8363545;28;19913;-80
2023/06/07 20:32:27;;;;;;;;;;;14.40;99.90;;;;;;8348357;28;19917;-80
2023/06/07 20:36:27;;;;;;;;;;;14.30;99.90;;;;;;8369608;28;19943;-80
2023/06/07 20:40:29;;;;;;;;;;;13.80;99.90;;;;;;8370973;28;19923;-80
2023/06/07 20:44:29;;;;;;;;;;;13.80;99.90;;;;;;8378482;28;19916;-79
2023/06/07 20:48:30;;;;;;;;;;;13.70;99.90;;;;;;8370885;28;20384;-80
2023/06/07 20:52:30;;;;;;;;;;;13.80;99.90;;;;;;8338341;28;19913;-79
2023/06/07 20:56:31;;;;;;;;;;;13.70;99.90;;;;;;8369694;28;19946;-80
2023/06/07 21:00:31;;;;;;;;;;;13.90;99.90;;;;;;8364345;28;19928;-80
2023/06/07 21:04:32;;;;;;;;;;;14.00;99.90;;;;;;8352213;28;20423;-80
2023/06/07 21:08:35;;;;;;;;;;;13.60;99.90;;;;;;8368162;28;20270;-80
2023/06/07 21:12:35;;;;;;;;;;;13.20;99.90;;;;;;8345196;28;19917;-82
2023/06/07 21:16:36;;;;;;;;;;;13.10;99.90;;;;;;8338856;28;19928;-79
2023/06/07 21:20:36;;;;;;;;;;;13.30;99.90;;;;;;8339137;28;19971;-79
2023/06/07 21:24:36;;;;;;;;;;;13.20;99.90;;;;;;8357858;28;19921;-79
2023/06/07 21:28:37;;;;;;;;;;;13.20;99.90;;;;;;8342414;28;19978;-79
2023/06/07 21:32:37;;;;;;;;;;;13.20;99.90;;;;;;8339311;28;20458;-79
2023/06/07 21:36:38;;;;;;;;;;;13.40;99.90;;;;;;8342544;28;20476;-79
2023/06/07 21:40:38;;;;;;;;;;;13.10;99.90;;;;;;8351408;28;20370;-79
2023/06/07 21:44:39;;;;;;;;;;;12.80;99.90;;;;;;8342010;28;19916;-79
2023/06/07 21:48:39;;;;;;;;;;;12.70;99.90;;;;;;8340279;28;19909;-79
2023/06/07 21:52:40;;;;;;;;;;;12.50;99.90;;;;;;8380386;28;19913;-79
2023/06/07 21:56:41;;;;;;;;;;;12.40;99.90;;;;;;8393514;28;19912;-79
2023/06/07 22:00:41;;;;;;;;;;;12.30;99.90;;;;;;8363467;28;19908;-79
2023/06/07 22:04:42;;;;;;;;;;;12.20;99.90;;;;;;8368950;28;19913;-79
2023/06/07 22:08:42;;;;;;;;;;;11.90;99.90;;;;;;8363660;28;19909;-81
2023/06/07 22:12:43;;;;;;;;;;;11.90;99.90;;;;;;8352988;28;19963;-79
2023/06/07 22:16:44;;;;;;;;;;;12.10;99.90;;;;;;8348794;28;19967;-80
2023/06/07 22:20:45;;;;;;;;;;;12.10;99.90;;;;;;8362829;28;19912;-79
2023/06/07 22:24:45;;;;;;;;;;;11.70;99.90;;;;;;8365611;28;19984;-78
2023/06/07 22:28:46;;;;;;;;;;;11.80;99.90;;;;;;8381444;28;19913;-81
2023/06/07 22:32:48;;;;;;;;;;;11.70;99.90;;;;;;8356206;28;19920;-80
2023/06/07 22:36:51;;;;;;;;;;;11.70;99.90;;;;;;8356556;28;19913;-79
2023/06/07 22:40:51;;;;;;;;;;;11.90;99.90;;;;;;8356931;28;19909;-79
2023/06/07 22:44:52;;;;;;;;;;;11.50;99.90;;;;;;8364543;28;19908;-79
2023/06/07 22:48:53;;;;;;;;;;;11.40;99.90;;;;;;8337404;28;19909;-79
2023/06/07 22:52:55;;;;;;;;;;;11.60;99.90;;;;;;8348402;28;19932;-80
2023/06/07 22:56:56;;;;;;;;;;;11.50;99.90;;;;;;8369772;28;19963;-79
2023/06/07 23:00:56;;;;;;;;;;;11.10;99.90;;;;;;8361068;28;19917;-79
2023/06/07 23:04:57;;;;;;;;;;;10.90;99.90;;;;;;8380804;28;19919;-79
2023/06/07 23:09:00;;;;;;;;;;;10.90;99.90;;;;;;8366324;28;19909;-79
2023/06/07 23:13:02;;;;;;;;;;;10.60;99.90;;;;;;8362239;28;19916;-79
2023/06/07 23:17:04;;;;;;;;;;;10.80;99.90;;;;;;8369650;28;19940;-79
2023/06/07 23:21:06;;;;;;;;;;;10.80;99.90;;;;;;8373435;28;19917;-79
2023/06/07 23:25:08;;;;;;;;;;;10.60;99.90;;;;;;8364277;28;19981;-80